Terminal Aerodrome Forecast
Issued by NWS

Home | Current Version | Previous Version | Text Only | Print | Product List | Glossary Off
Versions: 1 2 3 4 5 6 7 8 9 10 11 12 13 14 15 16 17 18 19 20 21 22 23

269
FTUS43 KUNR 121711 CCA
TAFGCC
TAF COR
KGCC 121711Z 1217/1312 VRB05KT P6SM SCT008 OVC060
      TEMPO 1217/1220 P6SM BKN008
     FM130100 19015KT P6SM OVC012=

USA.gov is the U.S. government's official web portal to all federal, state and local government web resources and services.